Terminal Aerodrome Forecast
Issued by NWS

Home | Current Version | Previous Version | Text Only | Print | Product List | Glossary On
Versions: 1 2 3 4 5 6 7 8 9 10 11 12 13 14 15 16 17 18 19 20 21 22 23 24 25
000
FTUS41 KOKX 051150
TAFSWF
TAF
KSWF 051150Z 0512/0618 VRB04KT P6SM FEW040
     FM051500 10005KT P6SM SKC
     FM052200 14005KT P6SM FEW250
     FM060000 VRB03KT P6SM SKC
      AMD NOT SKED=

USA.gov is the U.S. government's official web portal to all federal, state and local government web resources and services.